Flight Track Log - Related Links

Times and Time Zones

All times are in EDT time to prevent confusion due to time zone crossing. See the JBU1329 flight status page for this flight to view local times or setup timezone preferences in your user account.

Time Position Orientation Groundspeed Altitude Reporting Facility
EDT Latitude Longitude Course Direction KTS MPH feet Rate Location/Type
Fri 08:19:31 AM 42.3500 -71.0167 240° Southwest 155 178 800  Level KA90
Fri 08:19:49 AM 42.3500 -71.0167 240° Southwest 136 157 1,700 2,077 Climbing KA90
Fri 08:20:49 AM 42.3167 -70.9500 124° Southeast 221 254 3,500 2,231 Climbing KA90
Fri 08:21:50 AM 42.3247 -70.8592 83° East 321 369 6,200 3,126 Climbing Boston Center
Fri 08:22:48 AM 42.3169 -70.7553 96° East 285 328 9,700 2,550 Climbing Boston Center
Fri 08:23:00 AM 42.2482 -70.7944 228° Southwest  Level FlightAware Approximate
Fri 08:23:50 AM 42.2436 -70.7294 165° South 235 270 11,300  Level Boston Center
Fri 08:24:00 AM 42.1991 -70.8967 240° Southwest  Level FlightAware Approximate
Fri 08:24:51 AM 42.1822 -70.8011 221° Southwest 209 241 13,800  Level Boston Center
Fri 08:25:49 AM 42.1672 -70.9275 261° West 245 282 16,200 2,441 Climbing Boston Center
Fri 08:26:49 AM 42.1522 -71.0511 261° West 287 330 18,600 2,281 Climbing Boston Center
Fri 08:27:50 AM 42.1350 -71.1831 260° West 332 382 20,800 2,083 Climbing Boston Center
Fri 08:28:50 AM 42.1197 -71.3206 262° West 361 415 22,800 1,934 Climbing Boston Center
Fri 08:29:51 AM 42.1022 -71.4581 260° West 374 430 24,700 1,736 Climbing Boston Center
Fri 08:30:51 AM 42.0825 -71.5981 259° West 379 436 26,300 1,450 Climbing Boston Center
Fri 08:31:51 AM 42.0628 -71.7439 260° West 392 451 27,600 1,300 Climbing Boston Center
Fri 08:32:51 AM 42.0428 -71.8950 260° West 397 457 28,900 1,169 Climbing Boston Center
Fri 08:33:49 AM 42.0247 -72.0489 261° West 413 475 29,900 1,322 Climbing Boston Center
Fri 08:34:49 AM 42.0042 -72.1997 260° West 418 481 31,500 1,059 Climbing Boston Center
Fri 08:35:48 AM 41.9836 -72.3536 260° West 418 481 32,000 250 Climbing Boston Center
Fri 08:36:49 AM 41.9628 -72.5156 260° West 431 496 32,000  Level Boston Center
Fri 08:38:01 AM 41.9292 -72.6997 256° West 431 496 32,000  Level Boston Center
Fri 08:39:02 AM 41.8453 -72.8192 227° Southwest 426 490 32,000  Level Boston Center
Fri 08:40:02 AM 41.7678 -72.9300 227° Southwest 432 497 32,000  Level Boston Center
Fri 08:41:02 AM 41.6797 -73.0461 225° Southwest 443 510 32,000  Level Boston Center
Fri 08:42:01 AM 41.5978 -73.1592 226° Southwest 443 510 32,000  Level Boston Center
Fri 08:43:00 AM 41.5075 -73.2800 225° Southwest 430 495 32,000  Level Boston Center
Fri 08:45:11 AM 41.3275 -73.5203 225° Southwest 418 481 32,000  Level New York Center
Fri 08:46:11 AM 41.2475 -73.6411 229° Southwest 437 503 32,000  Level New York Center
Fri 08:47:12 AM 41.1736 -73.7675 232° Southwest 437 503 32,000  Level New York Center
Fri 08:48:11 AM 41.0975 -73.8933 231° Southwest 442 509 32,000  Level New York Center
Fri 08:49:11 AM 41.0253 -74.0194 233° Southwest 437 503 32,000  Level New York Center
Fri 08:50:12 AM 40.9489 -74.1419 230° Southwest 437 503 32,000 -756 Level New York Center
Fri 08:51:10 AM 40.8814 -74.2483 230° Southwest 437 503 30,500 -1,916 Descending New York Center
Fri 08:52:11 AM 40.8089 -74.3708 232° Southwest 430 495 28,200 -1,230 Descending New York Center
Fri 08:53:12 AM 40.7386 -74.4875 232° Southwest 425 489 28,000 -99 Descending New York Center
Fri 08:54:12 AM 40.6683 -74.6014 231° Southwest 419 482 28,000 -100 Level New York Center
Fri 08:55:12 AM 40.5956 -74.7175 230° Southwest 419 482 27,800 -807 Descending New York Center
Fri 08:56:11 AM 40.5011 -74.7994 213° Southwest 414 476 26,400 -1,650 Descending New York Center
Fri 08:57:12 AM 40.4128 -74.8869 217° Southwest 409 471 24,500 -1,736 Descending New York Center
Fri 08:58:12 AM 40.3506 -74.9978 234° Southwest 394 453 22,900 -1,729 Descending New York Center
Fri 08:59:10 AM 40.2836 -75.1133 233° Southwest 382 440 21,100 -1,664 Descending New York Center
Fri 09:00:11 AM 40.2258 -75.2158 234° Southwest 368 423 19,600 -1,388 Descending New York Center
Fri 09:01:11 AM 40.1700 -75.3072 231° Southwest 363 418 18,300 -1,082 Descending New York Center
Fri 09:02:13 AM 40.1078 -75.4117 232° Southwest 344 396 17,400 -650 Descending New York Center
Fri 09:03:11 AM 40.0506 -75.4867 225° Southwest 330 380 17,000 -203 Descending New York Center
Fri 09:04:11 AM 39.9931 -75.5694 228° Southwest 299 344 17,000 -347 Level New York Center
Fri 09:05:12 AM 39.9444 -75.6336 225° Southwest 287 330 16,300 -950 Descending New York Center
Fri 09:06:11 AM 39.8928 -75.7222 233° Southwest 280 322 15,100 -1,200 Descending New York Center
Fri 09:07:12 AM 39.8544 -75.7925 235° Southwest 275 316 13,900 -1,339 Descending New York Center
Fri 09:08:12 AM 39.8133 -75.8761 237° Southwest 268 308 12,400 -870 Descending New York Center
Fri 09:10:32 AM 39.7167 -76.0500 234° Southwest 250 288 11,000 -420 Descending Potomac TRACON
Fri 09:11:32 AM 39.6833 -76.1333 243° Southwest 251 289 11,000 -104 Level Potomac TRACON
Fri 09:12:27 AM 39.6500 -76.2000 237° Southwest 255 293 10,800 -1,000 Descending Potomac TRACON
Fri 09:13:32 AM 39.6333 -76.3000 258° West 257 296 9,000 -1,400 Descending Potomac TRACON
Fri 09:14:27 AM 39.6167 -76.3833 255° West 250 288 8,000 -522 Descending Potomac TRACON
Fri 09:15:27 AM 39.6000 -76.4667 255° West 252 290 8,000  Level Potomac TRACON
Fri 09:16:27 AM 39.6000 -76.5500 270° West 254 292 8,000  Level Potomac TRACON
Fri 09:17:27 AM 39.6167 -76.6333 285° West 226 260 8,000  Level Potomac TRACON
Fri 09:18:27 AM 39.6333 -76.7167 285° West 225 259 8,000  Level Potomac TRACON
Fri 09:19:27 AM 39.6333 -76.7833 270° West 206 237 8,000 -50 Level Potomac TRACON
Fri 09:20:27 AM 39.6167 -76.8500 252° West 208 239 7,900 -632 Descending Potomac TRACON
Fri 09:21:21 AM 39.6000 -76.9167 252° West 190 219 6,800 -1,000 Descending Potomac TRACON
Fri 09:22:21 AM 39.5667 -76.9667 229° Southwest 188 216 6,000 -421 Descending Potomac TRACON
Fri 09:23:15 AM 39.5333 -76.9667 180° South 206 237 6,000 -250 Level Potomac TRACON
Fri 09:24:21 AM 39.4667 -76.9333 159° South 202 232 5,500 -496 Descending Potomac TRACON
Fri 09:25:16 AM 39.4167 -76.9000 153° Southeast 199 229 5,000 -248 Descending Potomac TRACON
Fri 09:26:22 AM 39.3667 -76.9167 194° South 206 237 5,000 -150 Level Potomac TRACON
Fri 09:27:16 AM 39.3500 -76.9667 247° West 184 212 4,700 -526 Descending Potomac TRACON
Fri 09:28:16 AM 39.3167 -77.0000 218° Southwest 173 199 4,000 -694 Descending Potomac TRACON
Fri 09:29:17 AM 39.2667 -76.9833 166° South 151 174 3,300 -500 Descending Potomac TRACON
Fri 09:30:16 AM 39.2333 -76.9667 159° South 149 171 3,000 -158 Descending Potomac TRACON
Fri 09:31:11 AM 39.2000 -76.9500 159° South 165 190 3,000  Level Potomac TRACON

Login

Don't have an account? Register now (free) for customized features, flight alerts, and more!